createdAt,value
2018-10-11T00:02:00.370Z,17.67
2018-10-11T00:04:28.763Z,18.60
2018-10-11T00:06:57.204Z,18.70
2018-10-11T00:09:25.784Z,18.07
2018-10-11T00:11:54.203Z,18.73
2018-10-11T00:14:22.844Z,19.00
2018-10-11T00:16:51.223Z,19.53
2018-10-11T00:19:19.823Z,18.67
2018-10-11T00:21:48.885Z,17.63
2018-10-11T00:24:17.290Z,17.90
2018-10-11T00:26:45.728Z,17.57
2018-10-11T00:29:14.180Z,18.27
2018-10-11T00:31:42.623Z,18.13
2018-10-11T00:34:11.511Z,18.63
2018-10-11T00:36:39.866Z,18.10
2018-10-11T00:39:09.025Z,16.37
2018-10-11T00:41:38.399Z,17.50
2018-10-11T00:44:06.868Z,17.53
2018-10-11T00:46:35.286Z,17.97
2018-10-11T00:49:03.994Z,16.53
2018-10-11T00:51:32.336Z,17.10
2018-10-11T00:54:00.738Z,18.47
2018-10-11T00:56:29.359Z,17.77
2018-10-11T00:58:57.762Z,17.30
2018-10-11T01:01:26.204Z,17.90
2018-10-11T01:03:55.154Z,17.77
2018-10-11T01:06:23.626Z,17.40
2018-10-11T01:08:52.202Z,17.80
2018-10-11T01:11:20.782Z,18.70
2018-10-11T01:13:49.202Z,17.63
2018-10-11T01:16:17.962Z,18.13
2018-10-11T01:18:46.327Z,17.73
2018-10-11T01:21:15.540Z,16.40
2018-10-11T01:23:43.981Z,17.67
2018-10-11T01:26:12.587Z,17.80
2018-10-11T01:28:41.610Z,18.17
2018-10-11T01:31:15.639Z,17.80
2018-10-11T01:33:44.366Z,18.30
2018-10-11T01:36:12.830Z,17.60
2018-10-11T01:38:41.269Z,17.87
2018-10-11T01:41:09.682Z,18.13
2018-10-11T01:43:38.046Z,18.83
2018-10-11T01:46:06.826Z,19.10
2018-10-11T01:48:35.167Z,18.80
2018-10-11T01:51:03.583Z,19.60
2018-10-11T01:53:32.094Z,19.67
2018-10-11T01:56:00.507Z,19.07
2018-10-11T01:58:28.954Z,18.50
2018-10-11T02:00:57.311Z,19.63
2018-10-11T02:03:26.590Z,19.77
2018-10-11T02:05:55.042Z,19.13
2018-10-11T02:08:23.471Z,19.50
2018-10-11T02:10:51.831Z,19.73
2018-10-11T02:13:20.484Z,19.07
2018-10-11T02:15:48.894Z,19.40
2018-10-11T02:18:17.546Z,18.53
2018-10-11T02:20:45.915Z,19.03
2018-10-11T02:23:14.339Z,19.07
2018-10-11T02:25:42.694Z,19.00
2018-10-11T02:28:11.258Z,19.20
2018-10-11T02:30:39.691Z,19.97
2018-10-11T02:33:08.126Z,19.40
2018-10-11T02:35:36.501Z,19.50
2018-10-11T02:38:04.885Z,19.93
2018-10-11T02:40:34.134Z,20.53
2018-10-11T02:43:02.480Z,20.10
2018-10-11T02:45:30.843Z,18.73
2018-10-11T02:47:59.292Z,19.97
2018-10-11T02:50:27.653Z,20.13
2018-10-11T02:52:56.097Z,19.43
2018-10-11T02:55:26.222Z,20.10
2018-10-11T02:58:05.843Z,20.57
2018-10-11T03:00:35.378Z,19.93
2018-10-11T03:03:10.654Z,20.17
2018-10-11T03:05:44.454Z,20.23
2018-10-11T03:08:17.382Z,19.90
2018-10-11T03:10:46.161Z,20.37
2018-10-11T03:13:15.166Z,21.10
2018-10-11T03:15:44.667Z,20.17
2018-10-11T03:18:14.902Z,20.07
2018-10-11T03:20:44.615Z,20.73
2018-10-11T03:23:13.800Z,20.20
2018-10-11T03:25:44.031Z,19.90
2018-10-11T03:28:13.858Z,20.20
2018-10-11T03:30:42.863Z,21.67
2018-10-11T03:33:11.969Z,20.80
2018-10-11T03:35:41.257Z,21.47
2018-10-11T03:38:09.785Z,21.07
2018-10-11T03:40:38.199Z,21.10
2018-10-11T03:43:06.662Z,21.13
2018-10-11T03:45:35.663Z,22.07
2018-10-11T03:48:04.072Z,21.53
2018-10-11T03:50:32.486Z,21.60
2018-10-11T03:53:00.930Z,22.30
2018-10-11T03:55:30.058Z,21.07
2018-10-11T03:57:58.639Z,21.73
2018-10-11T04:00:27.191Z,23.17
2018-10-11T04:02:55.619Z,22.03
2018-10-11T04:05:24.078Z,22.13
2018-10-11T04:07:52.834Z,21.30
2018-10-11T04:10:21.206Z,24.37
2018-10-11T04:12:49.567Z,21.63
2018-10-11T04:15:18.167Z,22.73
2018-10-11T04:17:46.548Z,23.37
2018-10-11T04:20:15.293Z,22.53
2018-10-11T04:22:43.777Z,22.47
2018-10-11T04:25:12.130Z,22.57
2018-10-11T04:27:40.471Z,21.70
2018-10-11T04:30:08.986Z,23.03
2018-10-11T04:32:37.617Z,22.30
2018-10-11T04:35:06.220Z,23.83
2018-10-11T04:37:34.641Z,22.83
2018-10-11T04:40:03.025Z,23.03
2018-10-11T04:42:31.519Z,22.57
2018-10-11T04:44:59.901Z,23.20
2018-10-11T04:47:28.902Z,22.90
2018-10-11T04:49:57.281Z,24.00
2018-10-11T04:52:25.724Z,22.70
2018-10-11T04:54:54.111Z,23.80
2018-10-11T04:57:22.599Z,23.43
2018-10-11T04:59:51.128Z,23.00
2018-10-11T05:02:19.561Z,24.53
2018-10-11T05:04:47.950Z,24.90
2018-10-11T05:07:16.345Z,24.33
2018-10-11T05:09:44.895Z,23.70
2018-10-11T05:12:14.129Z,23.70
2018-10-11T05:14:42.616Z,25.10
2018-10-11T05:17:11.007Z,25.07
2018-10-11T05:19:40.652Z,26.10
2018-10-11T05:22:09.055Z,25.53
2018-10-11T05:24:37.438Z,23.53
2018-10-11T05:27:06.322Z,23.93
2018-10-11T05:29:35.574Z,24.53
2018-10-11T05:32:04.007Z,25.77
2018-10-11T05:34:32.388Z,25.50
2018-10-11T05:37:00.798Z,24.27
2018-10-11T05:39:29.390Z,25.60
2018-10-11T05:41:57.865Z,24.60
2018-10-11T05:44:26.466Z,24.43
2018-10-11T05:46:57.333Z,26.03
2018-10-11T05:49:25.738Z,24.57
2018-10-11T05:51:54.966Z,24.93
2018-10-11T05:54:23.421Z,24.60
2018-10-11T05:56:51.862Z,26.33
2018-10-11T05:59:20.407Z,25.93
2018-10-11T06:01:49.014Z,26.57
2018-10-11T06:04:17.810Z,25.83
2018-10-11T06:06:47.752Z,26.73
2018-10-11T06:09:16.702Z,24.50
2018-10-11T06:11:45.641Z,25.73
2018-10-11T06:14:15.012Z,24.37
2018-10-11T06:16:43.494Z,24.57
2018-10-11T06:19:14.290Z,23.93
2018-10-11T06:21:43.031Z,25.23
2018-10-11T06:24:11.947Z,24.83
2018-10-11T06:26:40.500Z,24.27
2018-10-11T06:29:09.273Z,25.50
2018-10-11T06:31:37.719Z,25.23
2018-10-11T06:34:06.281Z,24.20
2018-10-11T06:36:35.217Z,25.30
2018-10-11T06:39:04.659Z,24.77
2018-10-11T06:41:33.039Z,25.13
2018-10-11T06:44:01.570Z,25.97
2018-10-11T06:46:30.238Z,24.20
2018-10-11T06:48:58.663Z,24.37
2018-10-11T06:51:27.093Z,26.17
2018-10-11T06:53:55.479Z,26.03
2018-10-11T06:56:24.317Z,24.27
2018-10-11T06:58:53.005Z,25.17
2018-10-11T07:01:21.683Z,25.80
2018-10-11T07:03:50.121Z,26.03
2018-10-11T07:06:18.557Z,25.63
2018-10-11T07:08:46.938Z,26.07
2018-10-11T07:11:15.999Z,27.10
2018-10-11T07:13:44.712Z,26.47
2018-10-11T07:16:13.652Z,26.73
2018-10-11T07:18:42.119Z,26.40
2018-10-11T07:21:10.692Z,26.17
2018-10-11T07:23:39.454Z,26.10
2018-10-11T07:26:07.841Z,26.27
2018-10-11T07:28:36.437Z,26.67
2018-10-11T07:31:04.865Z,27.10
2018-10-11T07:33:33.334Z,26.47
2018-10-11T07:36:01.734Z,25.23
2018-10-11T07:38:30.129Z,24.60
2018-10-11T07:40:58.521Z,23.77
2018-10-11T07:43:26.939Z,24.67
2018-10-11T07:45:55.498Z,24.50
2018-10-11T07:48:23.896Z,23.60
2018-10-11T07:50:52.280Z,24.23
2018-10-11T07:53:20.690Z,22.00
2018-10-11T07:55:49.185Z,22.57
2018-10-11T07:58:17.806Z,23.73
2018-10-11T08:00:46.221Z,23.80
2018-10-11T08:03:14.602Z,21.97
2018-10-11T08:05:43.172Z,22.40
2018-10-11T08:08:11.589Z,21.37
2018-10-11T08:10:40.161Z,21.13
2018-10-11T08:13:08.562Z,20.77
2018-10-11T08:15:36.977Z,21.13
2018-10-11T08:18:05.932Z,20.10
2018-10-11T08:20:34.351Z,22.10
2018-10-11T08:23:02.696Z,19.83
2018-10-11T08:25:31.370Z,20.60
2018-10-11T08:27:59.511Z,19.53
2018-10-11T08:30:27.926Z,20.27
2018-10-11T08:32:56.411Z,19.77
2018-10-11T08:35:24.751Z,18.33
2018-10-11T08:37:53.267Z,18.20
2018-10-11T08:40:21.495Z,19.13
2018-10-11T08:42:49.920Z,18.10
2018-10-11T08:45:18.312Z,17.43
2018-10-11T08:47:46.718Z,18.63
2018-10-11T08:50:15.108Z,18.57
2018-10-11T08:52:43.510Z,18.30
2018-10-11T08:55:11.897Z,17.70
2018-10-11T08:57:40.741Z,17.27
2018-10-11T09:00:10.146Z,17.80
2018-10-11T09:02:38.646Z,17.23
2018-10-11T09:05:07.274Z,18.30
2018-10-11T09:07:35.629Z,16.77
2018-10-11T09:10:04.059Z,17.60
2018-10-11T09:12:32.613Z,17.43
2018-10-11T09:15:01.093Z,17.17
2018-10-11T09:17:29.542Z,16.53
2018-10-11T09:19:58.275Z,17.13
2018-10-11T09:22:26.870Z,16.57
2018-10-11T09:24:55.765Z,17.30
2018-10-11T09:27:24.545Z,16.30
2018-10-11T09:29:53.098Z,16.13
2018-10-11T09:32:21.510Z,16.27
2018-10-11T09:34:50.189Z,17.30
2018-10-11T09:37:19.612Z,16.43
2018-10-11T09:39:48.367Z,16.23
2018-10-11T09:42:17.528Z,15.40
2018-10-11T09:44:46.148Z,15.47
2018-10-11T09:47:14.635Z,15.73
2018-10-11T09:49:43.039Z,15.13
2018-10-11T09:52:11.485Z,16.77
2018-10-11T09:54:39.971Z,15.17
2018-10-11T09:57:23.966Z,15.53
2018-10-11T09:59:52.501Z,14.63
2018-10-11T10:02:21.382Z,15.23
2018-10-11T10:04:51.678Z,14.67
2018-10-11T10:07:20.791Z,14.00
2018-10-11T10:09:49.949Z,14.27
2018-10-11T10:12:19.023Z,14.77
2018-10-11T10:14:48.230Z,13.57
2018-10-11T10:17:17.811Z,14.30
2018-10-11T10:19:47.072Z,14.30
2018-10-11T10:22:15.976Z,13.57
2018-10-11T10:24:45.308Z,13.30
2018-10-11T10:27:13.934Z,13.83
2018-10-11T10:29:42.392Z,13.43
2018-10-11T10:32:10.834Z,13.77
2018-10-11T10:34:39.255Z,13.93
2018-10-11T10:37:07.930Z,13.47
2018-10-11T10:39:36.324Z,12.83
2018-10-11T10:42:04.714Z,14.17
2018-10-11T10:44:33.054Z,13.90
2018-10-11T10:47:01.413Z,12.93
2018-10-11T10:49:29.792Z,12.33
2018-10-11T10:51:58.671Z,13.73
2018-10-11T10:54:35.296Z,12.33
2018-10-11T10:57:05.032Z,12.70
2018-10-11T10:59:33.418Z,12.70
2018-10-11T11:02:01.835Z,12.03
2018-10-11T11:04:30.203Z,12.17
2018-10-11T11:06:58.545Z,12.80
2018-10-11T11:09:26.958Z,12.13
2018-10-11T11:11:55.290Z,12.10
2018-10-11T11:14:23.848Z,11.97
2018-10-11T11:16:52.528Z,10.83
2018-10-11T11:19:20.875Z,10.80
2018-10-11T11:21:49.275Z,12.33
2018-10-11T11:24:17.690Z,12.33
2018-10-11T11:26:46.278Z,11.77
2018-10-11T11:29:14.741Z,11.03
2018-10-11T11:31:43.189Z,11.27
2018-10-11T11:34:11.772Z,11.70
2018-10-11T11:36:40.155Z,10.97
2018-10-11T11:39:09.594Z,10.57
2018-10-11T11:41:38.097Z,11.30
2018-10-11T11:44:06.574Z,11.10
2018-10-11T11:46:35.347Z,10.77
2018-10-11T11:49:03.803Z,11.13
2018-10-11T11:51:32.203Z,10.60
2018-10-11T11:54:00.616Z,10.57
2018-10-11T11:56:29.028Z,10.47
2018-10-11T11:58:57.499Z,10.83
2018-10-11T12:01:25.920Z,9.90
2018-10-11T12:03:55.343Z,11.27
2018-10-11T12:06:23.732Z,10.03
2018-10-11T12:08:52.169Z,10.87
2018-10-11T12:11:20.693Z,10.03
2018-10-11T12:13:49.751Z,10.13
2018-10-11T12:16:18.149Z,10.57
2018-10-11T12:18:46.516Z,9.93
2018-10-11T12:21:14.940Z,9.77
2018-10-11T12:23:43.350Z,10.17
2018-10-11T12:26:11.720Z,10.57
2018-10-11T12:28:40.233Z,9.60
2018-10-11T12:31:08.508Z,10.13
2018-10-11T12:33:36.859Z,9.33
2018-10-11T12:36:05.824Z,9.57
2018-10-11T12:38:34.329Z,8.97
2018-10-11T12:41:02.703Z,9.60
2018-10-11T12:43:31.119Z,9.13
2018-10-11T12:45:59.478Z,9.30
2018-10-11T12:48:27.919Z,9.40
2018-10-11T12:50:56.337Z,9.20
2018-10-11T12:53:24.739Z,10.20
2018-10-11T12:55:53.181Z,9.50
2018-10-11T12:58:21.594Z,9.17
2018-10-11T13:00:50.015Z,9.90
2018-10-11T13:03:19.263Z,8.93
2018-10-11T13:05:47.926Z,10.10
2018-10-11T13:08:19.779Z,9.57
2018-10-11T13:10:49.442Z,9.13
2018-10-11T13:13:18.523Z,9.07
2018-10-11T13:15:47.464Z,8.77
2018-10-11T13:18:16.269Z,9.17
2018-10-11T13:20:44.750Z,8.70
2018-10-11T13:23:16.914Z,8.40
2018-10-11T13:25:42.064Z,8.60
2018-10-11T13:28:10.657Z,8.30
2018-10-11T13:30:39.183Z,8.80
2018-10-11T13:33:08.099Z,8.00
2018-10-11T13:35:37.155Z,8.63
2018-10-11T13:38:05.945Z,8.43
2018-10-11T13:40:34.909Z,8.43
2018-10-11T13:43:03.264Z,8.70
2018-10-11T13:45:31.810Z,8.03
2018-10-11T13:48:00.761Z,8.60
2018-10-11T13:50:29.180Z,8.27
2018-10-11T13:52:57.594Z,8.23
2018-10-11T13:55:26.001Z,8.40
2018-10-11T13:57:54.828Z,8.43
2018-10-11T14:00:23.294Z,8.43
2018-10-11T14:02:51.687Z,8.70
2018-10-11T14:05:20.350Z,8.90
2018-10-11T14:07:48.812Z,8.40
2018-10-11T14:10:17.221Z,8.60
2018-10-11T14:12:46.225Z,8.93
2018-10-11T14:15:14.954Z,8.90
2018-10-11T14:17:43.432Z,7.97
2018-10-11T14:20:11.862Z,8.47
2018-10-11T14:22:40.969Z,8.20
2018-10-11T14:25:09.366Z,9.37
2018-10-11T14:27:37.805Z,8.63
2018-10-11T14:30:06.827Z,8.23
2018-10-11T14:32:35.780Z,8.83
2018-10-11T14:35:04.541Z,8.63
2018-10-11T14:37:32.896Z,9.63
2018-10-11T14:40:01.335Z,9.50
2018-10-11T14:42:29.725Z,9.13
2018-10-11T14:44:58.343Z,8.63
2018-10-11T14:47:27.334Z,9.03
2018-10-11T14:49:55.731Z,9.23
2018-10-11T14:52:24.120Z,9.10
2018-10-11T14:54:52.604Z,10.20
2018-10-11T14:57:21.335Z,8.70
2018-10-11T14:59:49.913Z,8.83
2018-10-11T15:02:18.861Z,9.50
2018-10-11T15:04:47.870Z,9.73
2018-10-11T15:07:16.276Z,8.97
2018-10-11T15:09:44.787Z,9.07
2018-10-11T15:12:13.313Z,9.43
2018-10-11T15:14:41.807Z,9.50
2018-10-11T15:17:10.404Z,9.17
2018-10-11T15:19:38.871Z,9.40
2018-10-11T15:22:07.364Z,9.10
2018-10-11T15:24:35.803Z,9.23
2018-10-11T15:27:04.349Z,8.77
2018-10-11T15:29:32.856Z,8.93
2018-10-11T15:32:01.341Z,9.60
2018-10-11T15:34:30.974Z,10.00
2018-10-11T15:36:59.537Z,9.30
2018-10-11T15:39:27.987Z,9.77
2018-10-11T15:41:57.235Z,9.10
2018-10-11T15:44:25.651Z,8.97
2018-10-11T15:46:54.991Z,9.07
2018-10-11T15:49:23.418Z,8.73
2018-10-11T15:51:51.825Z,9.30
2018-10-11T15:54:20.178Z,9.20
2018-10-11T15:56:48.675Z,8.60
2018-10-11T15:59:17.095Z,8.30
2018-10-11T16:01:45.545Z,9.27
2018-10-11T16:04:14.679Z,8.97
2018-10-11T16:06:43.374Z,9.63
2018-10-11T16:09:12.073Z,8.90
2018-10-11T16:11:40.442Z,9.10
2018-10-11T16:14:09.698Z,8.70
2018-10-11T16:16:38.277Z,8.73
2018-10-11T16:19:06.866Z,9.67
2018-10-11T16:21:35.437Z,8.87
2018-10-11T16:24:04.974Z,9.00
2018-10-11T16:26:35.233Z,9.00
2018-10-11T16:29:04.347Z,7.83
2018-10-11T16:31:32.763Z,8.60
2018-10-11T16:34:01.300Z,8.50
2018-10-11T16:36:29.733Z,9.07
2018-10-11T16:38:58.153Z,9.73
2018-10-11T16:41:26.529Z,8.13
2018-10-11T16:43:55.046Z,9.20
2018-10-11T16:46:25.371Z,8.90
2018-10-11T16:48:53.801Z,8.73
2018-10-11T16:51:22.398Z,8.47
2018-10-11T16:53:52.190Z,8.37
2018-10-11T16:56:20.955Z,8.23
2018-10-11T16:58:49.337Z,8.17
2018-10-11T17:01:18.113Z,8.63
2018-10-11T17:03:47.435Z,8.00
2018-10-11T17:06:15.950Z,9.17
2018-10-11T17:08:44.533Z,8.73
2018-10-11T17:11:13.631Z,8.70
2018-10-11T17:13:42.089Z,8.87
2018-10-11T17:16:11.585Z,8.53
2018-10-11T17:18:40.612Z,8.53
2018-10-11T17:21:09.312Z,8.90
2018-10-11T17:23:37.990Z,8.73
2018-10-11T17:26:06.592Z,8.67
2018-10-11T17:28:35.057Z,8.47
2018-10-11T17:31:03.530Z,9.17
2018-10-11T17:33:32.020Z,7.77
2018-10-11T17:36:01.235Z,8.63
2018-10-11T17:38:30.383Z,8.33
2018-10-11T17:40:58.765Z,9.30
2018-10-11T17:43:27.321Z,8.27
2018-10-11T17:45:55.680Z,9.00
2018-10-11T17:48:24.829Z,8.13
2018-10-11T17:50:53.874Z,8.20
2018-10-11T17:53:22.294Z,8.33
2018-10-11T17:55:50.752Z,9.27
2018-10-11T17:58:19.167Z,8.30
2018-10-11T18:00:49.214Z,8.50
2018-10-11T18:03:18.633Z,8.00
2018-10-11T18:05:48.138Z,8.70
2018-10-11T18:08:16.918Z,8.87
2018-10-11T18:10:45.853Z,8.83
2018-10-11T18:13:14.635Z,9.30
2018-10-11T18:15:43.496Z,8.83
2018-10-11T18:18:12.239Z,9.27
2018-10-11T18:20:46.228Z,8.80
2018-10-11T18:23:15.080Z,8.60
2018-10-11T18:25:44.251Z,8.13
2018-10-11T18:28:13.139Z,8.83
2018-10-11T18:30:43.402Z,9.10
2018-10-11T18:33:12.417Z,9.30
2018-10-11T18:35:41.471Z,9.10
2018-10-11T18:38:10.689Z,9.13
2018-10-11T18:40:40.320Z,8.80
2018-10-11T18:43:10.428Z,8.87
2018-10-11T18:45:39.934Z,8.00
2018-10-11T18:48:08.828Z,9.20
2018-10-11T18:50:37.831Z,8.43
2018-10-11T18:53:08.150Z,9.13
2018-10-11T18:55:38.159Z,9.17
2018-10-11T18:58:07.111Z,9.20
2018-10-11T19:00:36.330Z,8.37
2018-10-11T19:03:05.552Z,8.90
2018-10-11T19:05:34.373Z,8.73
2018-10-11T19:08:03.525Z,9.53
2018-10-11T19:10:33.032Z,8.90
2018-10-11T19:13:02.700Z,8.97
2018-10-11T19:15:31.447Z,9.23
2018-10-11T19:18:00.112Z,8.23
2018-10-11T19:20:28.844Z,8.83
2018-10-11T19:22:58.102Z,9.23
2018-10-11T19:25:27.055Z,9.20
2018-10-11T19:27:56.151Z,9.03
2018-10-11T19:30:25.147Z,9.80
2018-10-11T19:32:53.931Z,8.80
2018-10-11T19:35:22.819Z,8.97
2018-10-11T19:37:51.612Z,8.53
2018-10-11T19:40:20.763Z,9.60
2018-10-11T19:42:50.202Z,9.27
2018-10-11T19:45:20.234Z,8.97
2018-10-11T19:47:49.562Z,9.37
2018-10-11T19:50:18.852Z,9.07
2018-10-11T19:52:47.876Z,9.13
2018-10-11T19:55:17.327Z,9.30
2018-10-11T19:57:45.990Z,9.23
2018-10-11T20:00:14.661Z,8.90
2018-10-11T20:02:43.488Z,9.50
2018-10-11T20:05:12.274Z,9.40
2018-10-11T20:07:40.917Z,8.93
2018-10-11T20:10:10.198Z,8.77
2018-10-11T20:12:41.859Z,9.17
2018-10-11T20:15:10.877Z,9.43
2018-10-11T20:17:40.282Z,9.37
2018-10-11T20:20:09.956Z,9.93
2018-10-11T20:22:39.618Z,9.60
2018-10-11T20:25:13.343Z,9.20
2018-10-11T20:27:42.204Z,9.97
2018-10-11T20:30:15.640Z,10.30
2018-10-11T20:32:44.186Z,9.60
2018-10-11T20:35:12.815Z,10.13
2018-10-11T20:37:41.238Z,9.67
2018-10-11T20:40:10.535Z,9.63
2018-10-11T20:42:38.985Z,10.03
2018-10-11T20:45:07.442Z,9.63
2018-10-11T20:47:35.984Z,9.40
2018-10-11T20:50:04.675Z,10.60
2018-10-11T20:52:33.069Z,9.73
2018-10-11T20:55:01.407Z,9.57
2018-10-11T20:57:29.955Z,9.77
2018-10-11T20:59:58.741Z,9.53
2018-10-11T21:02:27.182Z,9.43
2018-10-11T21:04:55.642Z,8.43
2018-10-11T21:07:24.079Z,9.20
2018-10-11T21:09:52.690Z,9.80
2018-10-11T21:12:21.178Z,10.13
2018-10-11T21:14:49.769Z,9.17
2018-10-11T21:17:18.238Z,9.40
2018-10-11T21:19:46.612Z,8.60
2018-10-11T21:22:15.251Z,8.90
2018-10-11T21:24:44.812Z,9.57
2018-10-11T21:27:13.214Z,9.07
2018-10-11T21:29:41.802Z,9.40
2018-10-11T21:32:11.069Z,9.63
2018-10-11T21:34:39.604Z,9.00
2018-10-11T21:37:08.023Z,9.33
2018-10-11T21:39:36.461Z,9.20
2018-10-11T21:42:06.389Z,9.57
2018-10-11T21:44:34.971Z,8.97
2018-10-11T21:47:03.391Z,8.37
2018-10-11T21:49:32.681Z,8.27
2018-10-11T21:52:01.673Z,8.97
2018-10-11T21:54:30.215Z,8.60
2018-10-11T21:56:59.163Z,9.27
2018-10-11T21:59:27.755Z,9.83
2018-10-11T22:01:56.223Z,9.97
2018-10-11T22:04:24.709Z,9.50
2018-10-11T22:06:53.251Z,9.10
2018-10-11T22:09:21.648Z,8.87
2018-10-11T22:11:50.152Z,9.73
2018-10-11T22:14:18.610Z,9.40
2018-10-11T22:16:47.011Z,9.83
2018-10-11T22:19:15.509Z,9.87
2018-10-11T22:21:43.986Z,10.40
2018-10-11T22:24:12.324Z,8.77
2018-10-11T22:26:40.862Z,10.00
2018-10-11T22:29:09.277Z,9.80
2018-10-11T22:31:37.856Z,9.77
2018-10-11T22:34:06.315Z,9.33
2018-10-11T22:36:34.707Z,9.50
2018-10-11T22:39:03.408Z,9.73
2018-10-11T22:41:32.462Z,9.73
2018-10-11T22:44:00.907Z,10.90
2018-10-11T22:46:29.316Z,9.60
2018-10-11T22:48:57.724Z,9.87
2018-10-11T22:51:26.146Z,9.20
2018-10-11T22:53:54.507Z,9.33
2018-10-11T22:56:23.011Z,9.53
2018-10-11T22:58:52.611Z,10.37
2018-10-11T23:01:20.999Z,10.30
2018-10-11T23:03:50.161Z,10.00
2018-10-11T23:06:19.242Z,9.67
2018-10-11T23:08:48.298Z,8.50
2018-10-11T23:11:16.722Z,9.47
2018-10-11T23:13:45.198Z,9.13
2018-10-11T23:16:14.326Z,9.23
2018-10-11T23:18:42.915Z,9.90
2018-10-11T23:21:12.083Z,9.07
2018-10-11T23:23:41.154Z,9.77
2018-10-11T23:26:09.552Z,8.77
2018-10-11T23:28:38.095Z,10.27
2018-10-11T23:31:06.750Z,9.97
2018-10-11T23:33:35.694Z,8.77
2018-10-11T23:36:04.596Z,9.70
2018-10-11T23:38:32.977Z,10.37
2018-10-11T23:41:01.534Z,9.40
2018-10-11T23:43:29.983Z,10.03
2018-10-11T23:45:58.738Z,9.83
2018-10-11T23:48:27.298Z,9.03
2018-10-11T23:50:55.903Z,9.53
2018-10-11T23:53:24.618Z,9.83
2018-10-11T23:55:53.276Z,9.30
2018-10-11T23:58:22.019Z,9.47
